createdAt,value
2018-11-02T00:00:11.677Z,61.78
2018-11-02T00:01:11.768Z,61.88
2018-11-02T00:02:11.572Z,61.88
2018-11-02T00:03:11.685Z,61.78
2018-11-02T00:04:11.687Z,62.01
2018-11-02T00:05:11.619Z,61.98
2018-11-02T00:06:11.681Z,61.68
2018-11-02T00:07:11.599Z,61.88
2018-11-02T00:08:11.614Z,62.62
2018-11-02T00:09:11.649Z,62.01
2018-11-02T00:10:11.643Z,61.98
2018-11-02T00:11:11.529Z,62.11
2018-11-02T00:12:11.579Z,62.62
2018-11-02T00:13:11.642Z,62.41
2018-11-02T00:14:11.554Z,62.62
2018-11-02T00:15:11.563Z,62.52
2018-11-02T00:16:11.574Z,62.31
2018-11-02T00:17:12.390Z,62.62
2018-11-02T00:18:11.777Z,62.21
2018-11-02T00:19:11.468Z,62.62
2018-11-02T00:20:11.699Z,62.41
2018-11-02T00:21:11.389Z,62.92
2018-11-02T00:22:11.421Z,62.52
2018-11-02T00:23:11.808Z,62.72
2018-11-02T00:24:11.432Z,62.31
2018-11-02T00:25:11.417Z,62.52
2018-11-02T00:26:13.119Z,62.41
2018-11-02T00:27:18.180Z,62.92
2018-11-02T00:28:11.732Z,62.82
2018-11-02T00:29:11.343Z,63.02
2018-11-02T00:30:12.480Z,62.75
2018-11-02T00:31:28.856Z,63.32
2018-11-02T00:32:13.644Z,62.92
2018-11-02T00:33:12.653Z,62.72
2018-11-02T00:35:56.871Z,62.82
2018-11-02T00:36:55.180Z,63.26
2018-11-02T00:37:56.820Z,63.43
2018-11-02T00:38:55.140Z,63.15
2018-11-02T00:39:55.150Z,63.32
2018-11-02T00:40:56.426Z,63.43
2018-11-02T00:41:55.039Z,63.43
2018-11-02T00:42:55.149Z,63.12
2018-11-02T00:43:55.126Z,63.23
2018-11-02T00:44:55.163Z,63.32
2018-11-02T00:45:55.059Z,63.02
2018-11-02T00:46:54.980Z,62.82
2018-11-02T00:47:55.176Z,63.23
2018-11-02T00:48:55.796Z,63.12
2018-11-02T00:49:54.982Z,63.12
2018-11-02T00:50:54.980Z,63.43
2018-11-02T00:51:54.899Z,63.02
2018-11-02T00:52:55.002Z,62.92
2018-11-02T00:53:54.919Z,62.72
2018-11-02T00:54:54.914Z,62.62
2018-11-02T00:55:54.914Z,63.02
2018-11-02T00:56:54.951Z,63.23
2018-11-02T00:57:55.058Z,63.53
2018-11-02T00:58:54.828Z,62.92
2018-11-02T00:59:54.840Z,63.12
2018-11-02T01:00:54.967Z,63.02
2018-11-02T01:01:54.865Z,63.23
2018-11-02T01:02:54.958Z,63.09
2018-11-02T01:03:54.763Z,62.92
2018-11-02T01:04:54.775Z,62.79
2018-11-02T01:05:54.944Z,63.40
2018-11-02T01:06:54.781Z,63.60
2018-11-02T01:07:55.014Z,63.60
2018-11-02T01:08:54.896Z,63.53
2018-11-02T01:09:54.694Z,63.60
2018-11-02T01:10:54.800Z,63.60
2018-11-02T01:11:56.495Z,63.60
2018-11-02T01:12:54.725Z,63.43
2018-11-02T01:13:54.825Z,63.53
2018-11-02T01:14:54.729Z,63.43
2018-11-02T01:15:54.636Z,63.32
2018-11-02T01:16:54.645Z,63.12
2018-11-02T01:17:54.710Z,63.12
2018-11-02T01:18:54.911Z,63.63
2018-11-02T01:19:54.659Z,63.32
2018-11-02T01:20:54.666Z,63.63
2018-11-02T01:21:54.669Z,63.32
2018-11-02T01:22:54.591Z,63.43
2018-11-02T01:23:54.727Z,63.63
2018-11-02T01:24:54.688Z,63.83
2018-11-02T01:25:54.600Z,63.63
2018-11-02T01:26:54.605Z,63.53
2018-11-02T01:27:54.528Z,63.43
2018-11-02T01:28:54.613Z,63.83
2018-11-02T01:29:54.517Z,63.83
2018-11-02T01:30:54.522Z,63.53
2018-11-02T01:31:54.632Z,63.63
2018-11-02T01:32:54.548Z,63.53
2018-11-02T01:33:54.543Z,63.43
2018-11-02T01:34:54.449Z,63.63
2018-11-02T01:35:54.458Z,63.53
2018-11-02T01:36:54.465Z,63.63
2018-11-02T01:37:54.571Z,63.53
2018-11-02T01:38:54.584Z,63.06
2018-11-02T01:39:54.424Z,63.46
2018-11-02T01:40:54.486Z,63.63
2018-11-02T01:41:54.435Z,63.15
2018-11-02T01:42:54.422Z,62.92
2018-11-02T01:43:54.507Z,63.46
2018-11-02T01:44:54.445Z,63.66
2018-11-02T01:45:54.322Z,63.86
2018-11-02T01:46:54.340Z,63.46
2018-11-02T01:47:54.328Z,63.46
2018-11-02T01:48:54.439Z,63.73
2018-11-02T01:49:54.368Z,63.46
2018-11-02T01:50:54.361Z,63.46
2018-11-02T01:51:54.256Z,63.66
2018-11-02T01:52:54.255Z,63.66
2018-11-02T01:53:54.462Z,63.32
2018-11-02T01:54:54.270Z,63.83
2018-11-02T01:55:54.265Z,63.86
2018-11-02T01:56:54.300Z,63.46
2018-11-02T01:57:54.282Z,63.86
2018-11-02T01:58:54.286Z,63.46
2018-11-02T01:59:54.225Z,63.26
2018-11-02T02:00:54.208Z,63.35
2018-11-02T02:01:54.212Z,63.56
2018-11-02T02:02:54.212Z,63.35
2018-11-02T02:03:54.239Z,63.32
2018-11-02T02:04:54.137Z,63.15
2018-11-02T02:05:54.137Z,62.95
2018-11-02T02:06:54.134Z,62.65
2018-11-02T02:07:54.141Z,62.65
2018-11-02T02:08:54.263Z,62.54
2018-11-02T02:09:54.050Z,62.54
2018-11-02T02:10:54.086Z,62.34
2018-11-02T02:11:54.094Z,62.52
2018-11-02T02:12:54.092Z,61.80
2018-11-02T02:13:54.183Z,62.04
2018-11-02T02:14:54.106Z,61.80
2018-11-02T02:15:53.997Z,61.30
2018-11-02T02:16:53.994Z,61.80
2018-11-02T02:17:54.000Z,61.60
2018-11-02T02:18:54.118Z,61.60
2018-11-02T02:19:54.035Z,61.80
2018-11-02T02:20:54.039Z,61.71
2018-11-02T02:21:53.926Z,61.80
2018-11-02T02:22:53.947Z,61.40
2018-11-02T02:23:54.053Z,61.71
2018-11-02T02:24:53.942Z,61.91
2018-11-02T02:25:53.948Z,61.30
2018-11-02T02:26:53.981Z,61.20
2018-11-02T02:27:53.860Z,61.40
2018-11-02T02:28:53.973Z,61.78
2018-11-02T02:29:53.876Z,62.11
2018-11-02T02:30:53.879Z,61.60
2018-11-02T02:31:53.913Z,62.11
2018-11-02T02:32:53.898Z,61.71
2018-11-02T02:33:53.925Z,60.69
2018-11-02T02:34:53.851Z,60.89
2018-11-02T02:35:53.809Z,61.30
2018-11-02T02:36:53.827Z,61.10
2018-11-02T02:37:53.841Z,60.89
2018-11-02T02:38:53.860Z,61.40
2018-11-02T02:39:53.841Z,60.79
2018-11-02T02:40:53.749Z,60.49
2018-11-02T02:41:53.754Z,61.40
2018-11-02T02:42:53.754Z,60.69
2018-11-02T02:43:53.765Z,60.89
2018-11-02T02:44:53.875Z,61.60
2018-11-02T02:45:53.685Z,61.60
2018-11-02T02:46:53.706Z,61.60
2018-11-02T02:47:53.701Z,61.40
2018-11-02T02:48:53.731Z,62.04
2018-11-02T02:49:53.797Z,61.94
2018-11-02T02:50:53.719Z,61.94
2018-11-02T02:51:53.756Z,62.04
2018-11-02T02:52:53.615Z,62.04
2018-11-02T02:53:53.624Z,61.94
2018-11-02T02:54:53.732Z,61.63
2018-11-02T02:55:53.632Z,61.33
2018-11-02T02:56:53.652Z,61.74
2018-11-02T02:57:53.553Z,61.83
2018-11-02T02:58:53.577Z,61.23
2018-11-02T02:59:53.700Z,61.23
2018-11-02T03:00:53.564Z,61.02
2018-11-02T03:01:53.587Z,61.02
2018-11-02T03:02:53.579Z,60.93
2018-11-02T03:03:53.480Z,60.01
2018-11-02T03:04:53.597Z,60.62
2018-11-02T03:05:53.488Z,59.81
2018-11-02T03:06:53.491Z,60.62
2018-11-02T03:07:53.525Z,59.41
2018-11-02T03:08:53.539Z,59.41
2018-11-02T03:09:53.517Z,59.61
2018-11-02T03:10:53.681Z,58.69
2018-11-02T03:11:53.423Z,58.90
2018-11-02T03:12:53.427Z,59.10
2018-11-02T03:13:53.454Z,59.61
2018-11-02T03:14:53.545Z,58.90
2018-11-02T03:15:53.353Z,58.90
2018-11-02T03:16:53.356Z,59.00
2018-11-02T03:17:53.359Z,59.30
2018-11-02T03:18:53.361Z,59.41
2018-11-02T03:19:53.510Z,59.50
2018-11-02T03:20:53.377Z,58.90
2018-11-02T03:21:53.283Z,58.80
2018-11-02T03:22:53.278Z,59.41
2018-11-02T03:23:53.309Z,59.20
2018-11-02T03:24:53.407Z,58.59
2018-11-02T03:25:53.308Z,58.80
2018-11-02T03:26:53.342Z,59.20
2018-11-02T03:27:53.234Z,59.00
2018-11-02T03:28:53.230Z,57.98
2018-11-02T03:29:53.333Z,57.98
2018-11-02T03:30:53.251Z,58.59
2018-11-02T03:31:53.241Z,57.40
2018-11-02T03:32:53.335Z,57.98
2018-11-02T03:33:53.149Z,57.48
2018-11-02T03:34:53.264Z,57.48
2018-11-02T03:35:53.161Z,57.98
2018-11-02T03:36:53.183Z,58.59
2018-11-02T03:37:53.169Z,58.11
2018-11-02T03:38:53.189Z,57.78
2018-11-02T03:39:53.196Z,58.18
2018-11-02T03:40:53.124Z,57.91
2018-11-02T03:41:53.104Z,58.31
2018-11-02T03:42:53.108Z,58.09
2018-11-02T03:43:53.219Z,58.01
2018-11-02T03:44:53.246Z,58.31
2018-11-02T03:45:53.024Z,58.82
2018-11-02T03:46:53.031Z,59.23
2018-11-02T03:47:53.052Z,59.23
2018-11-02T03:48:53.046Z,59.23
2018-11-02T03:49:53.144Z,58.82
2018-11-02T03:50:53.120Z,58.01
2018-11-02T03:51:53.058Z,58.82
2018-11-02T03:52:52.971Z,58.62
2018-11-02T03:53:52.970Z,58.82
2018-11-02T03:54:53.091Z,59.23
2018-11-02T03:55:53.377Z,59.03
2018-11-02T03:56:53.066Z,58.62
2018-11-02T03:57:53.053Z,58.72
2018-11-02T03:58:52.910Z,59.23
2018-11-02T03:59:53.712Z,57.81
2018-11-02T04:00:52.916Z,58.01
2018-11-02T04:01:52.943Z,58.82
2018-11-02T04:02:52.929Z,58.01
2018-11-02T04:03:52.941Z,58.11
2018-11-02T04:04:52.949Z,58.14
2018-11-02T04:05:52.854Z,58.65
2018-11-02T04:06:52.853Z,58.04
2018-11-02T04:07:52.860Z,58.31
2018-11-02T04:08:52.878Z,59.46
2018-11-02T04:09:52.773Z,58.95
2018-11-02T04:10:53.001Z,58.85
2018-11-02T04:11:52.792Z,59.26
2018-11-02T04:12:52.794Z,58.24
2018-11-02T04:13:52.814Z,57.73
2018-11-02T04:14:52.799Z,59.26
2018-11-02T04:15:53.162Z,58.95
2018-11-02T04:16:52.725Z,59.77
2018-11-02T04:17:52.762Z,59.36
2018-11-02T04:18:52.726Z,59.26
2018-11-02T04:19:52.758Z,59.77
2018-11-02T04:20:52.866Z,59.56
2018-11-02T04:21:52.748Z,59.36
2018-11-02T04:22:52.696Z,59.36
2018-11-02T04:23:52.658Z,59.59
2018-11-02T04:24:52.688Z,59.99
2018-11-02T04:25:52.881Z,59.99
2018-11-02T04:26:52.683Z,59.89
2018-11-02T04:27:52.696Z,59.56
2018-11-02T04:28:52.589Z,59.28
2018-11-02T04:29:52.596Z,59.86
2018-11-02T04:30:52.804Z,59.77
2018-11-02T04:31:52.601Z,59.48
2018-11-02T04:32:52.618Z,59.28
2018-11-02T04:33:52.634Z,59.59
2018-11-02T04:34:52.514Z,59.69
2018-11-02T04:35:52.640Z,60.30
2018-11-02T04:36:52.530Z,60.20
2018-11-02T04:37:52.552Z,59.69
2018-11-02T04:38:52.570Z,59.79
2018-11-02T04:39:52.571Z,59.99
2018-11-02T04:40:52.550Z,60.20
2018-11-02T04:41:52.478Z,60.10
2018-11-02T04:42:52.493Z,60.22
2018-11-02T04:43:52.507Z,60.74
2018-11-02T04:44:52.522Z,61.24
2018-11-02T04:45:52.498Z,61.04
2018-11-02T04:46:52.403Z,60.53
2018-11-02T04:47:52.401Z,60.22
2018-11-02T04:48:52.403Z,60.60
2018-11-02T04:49:52.409Z,60.83
2018-11-02T04:50:52.562Z,60.13
2018-11-02T04:51:52.443Z,60.94
2018-11-02T04:52:52.313Z,60.94
2018-11-02T04:53:53.363Z,60.53
2018-11-02T04:54:52.395Z,60.83
2018-11-02T04:55:52.444Z,60.63
2018-11-02T04:56:52.353Z,60.94
2018-11-02T04:57:52.415Z,60.74
2018-11-02T04:58:52.255Z,61.44
2018-11-02T04:59:52.266Z,61.37
2018-11-02T05:00:52.660Z,61.04
2018-11-02T05:01:52.281Z,61.27
2018-11-02T05:02:52.292Z,61.07
2018-11-02T05:03:52.281Z,60.53
2018-11-02T05:04:52.199Z,60.86
2018-11-02T05:05:52.330Z,61.37
2018-11-02T05:06:52.194Z,61.47
2018-11-02T05:07:52.213Z,61.57
2018-11-02T05:08:52.233Z,61.78
2018-11-02T05:09:52.280Z,61.47
2018-11-02T05:10:52.237Z,61.88
2018-11-02T05:11:52.140Z,62.08
2018-11-02T05:12:52.139Z,61.88
2018-11-02T05:13:52.148Z,61.88
2018-11-02T05:14:52.183Z,62.18
2018-11-02T05:15:52.158Z,61.88
2018-11-02T05:16:52.063Z,61.57
2018-11-02T05:17:52.074Z,61.81
2018-11-02T05:18:52.067Z,61.57
2018-11-02T05:19:52.074Z,61.88
2018-11-02T05:20:52.196Z,61.40
2018-11-02T05:21:52.099Z,61.81
2018-11-02T05:22:51.993Z,61.60
2018-11-02T05:23:52.002Z,61.81
2018-11-02T05:24:52.012Z,62.21
2018-11-02T05:25:52.142Z,61.81
2018-11-02T05:26:52.043Z,62.21
2018-11-02T05:27:51.969Z,61.88
2018-11-02T05:28:51.934Z,61.98
2018-11-02T05:29:51.963Z,62.11
2018-11-02T05:30:52.060Z,62.11
2018-11-02T05:31:51.951Z,62.21
2018-11-02T05:32:51.964Z,61.81
2018-11-02T05:33:51.864Z,62.62
2018-11-02T05:34:51.861Z,61.91
2018-11-02T05:35:51.976Z,61.81
2018-11-02T05:36:51.879Z,62.21
2018-11-02T05:37:51.901Z,62.21
2018-11-02T05:38:51.897Z,62.41
2018-11-02T05:39:51.895Z,61.91
2018-11-02T05:40:51.804Z,62.11
2018-11-02T05:41:51.905Z,62.41
2018-11-02T05:42:51.815Z,62.11
2018-11-02T05:43:51.819Z,62.21
2018-11-02T05:44:51.830Z,62.21
2018-11-02T05:45:51.749Z,61.91
2018-11-02T05:46:51.955Z,62.11
2018-11-02T05:47:51.740Z,62.52
2018-11-02T05:48:51.768Z,61.91
2018-11-02T05:49:51.760Z,62.01
2018-11-02T05:50:51.773Z,61.60
2018-11-02T05:51:51.767Z,62.11
2018-11-02T05:52:51.690Z,62.11
2018-11-02T05:53:51.684Z,62.01
2018-11-02T05:54:51.686Z,62.11
2018-11-02T05:55:51.708Z,62.01
2018-11-02T05:56:51.808Z,61.98
2018-11-02T05:57:51.604Z,61.37
2018-11-02T05:58:51.620Z,61.17
2018-11-02T05:59:51.627Z,61.37
2018-11-02T06:00:51.660Z,62.01
2018-11-02T06:01:51.954Z,61.30
2018-11-02T06:02:51.641Z,61.57
2018-11-02T06:03:51.653Z,60.86
2018-11-02T06:04:51.578Z,61.47
2018-11-02T06:05:51.555Z,61.27
2018-11-02T06:06:51.664Z,61.57
2018-11-02T06:07:51.621Z,61.27
2018-11-02T06:08:51.574Z,61.88
2018-11-02T06:09:51.593Z,61.68
2018-11-02T06:10:51.489Z,61.68
2018-11-02T06:13:19.884Z,61.98
2018-11-02T06:14:19.568Z,66.15
2018-11-02T06:15:19.503Z,66.42
2018-11-02T06:16:19.496Z,64.87
2018-11-02T06:17:19.605Z,59.77
2018-11-02T06:18:19.792Z,61.39
2018-11-02T06:19:19.401Z,60.35
2018-11-02T06:20:19.381Z,57.71
2018-11-02T06:21:19.422Z,59.03
2018-11-02T06:22:19.631Z,59.63
2018-11-02T06:23:20.461Z,59.00
2018-11-02T06:24:19.395Z,58.87
2018-11-02T06:25:19.313Z,59.01
2018-11-02T06:26:19.317Z,57.87
2018-11-02T06:27:19.482Z,57.34
2018-11-02T06:28:19.255Z,56.81
2018-11-02T06:29:19.239Z,56.58
2018-11-02T06:30:19.481Z,55.07
2018-11-02T06:31:19.251Z,55.24
2018-11-02T06:32:19.366Z,55.34
2018-11-02T06:33:19.281Z,53.90
2018-11-02T06:34:19.733Z,54.00
2018-11-02T06:37:20.320Z,53.14
2018-11-02T06:39:58.507Z,53.72
2018-11-02T06:42:13.786Z,53.42
2018-11-02T06:45:26.536Z,52.19
2018-11-02T06:46:26.196Z,51.59
2018-11-02T06:47:26.327Z,51.36
2018-11-02T06:48:27.950Z,51.59
2018-11-02T06:49:26.129Z,51.66
2018-11-02T06:50:26.124Z,50.96
2018-11-02T06:51:26.101Z,51.06
2018-11-02T06:52:27.015Z,50.76
2018-11-02T06:53:26.169Z,51.46
2018-11-02T06:54:26.202Z,51.16
2018-11-02T06:55:26.266Z,51.14
2018-11-02T06:56:34.272Z,50.96
2018-11-02T06:59:15.767Z,51.14
2018-11-02T07:00:15.601Z,50.73
2018-11-02T07:04:18.465Z,50.76
2018-11-02T07:05:25.601Z,50.83
2018-11-02T07:06:19.827Z,50.83
2018-11-02T07:07:18.263Z,50.96
2018-11-02T07:10:08.268Z,51.14
2018-11-02T07:11:08.174Z,51.14
2018-11-02T07:14:42.208Z,51.73
2018-11-02T07:24:54.572Z,48.88
2018-11-02T07:28:46.518Z,48.05
2018-11-02T07:29:45.894Z,48.66
2018-11-02T07:30:46.001Z,48.03
2018-11-02T07:31:46.063Z,48.33
2018-11-02T07:32:45.893Z,47.63
2018-11-02T07:33:45.854Z,47.63
2018-11-02T07:40:55.617Z,47.61
2018-11-02T07:41:55.457Z,47.50
2018-11-02T07:42:55.954Z,47.61
2018-11-02T07:45:44.642Z,47.78
2018-11-02T07:46:46.576Z,47.19
2018-11-02T07:47:44.687Z,47.69
2018-11-02T07:52:03.981Z,47.19
2018-11-02T07:54:35.886Z,46.98
2018-11-02T07:57:31.619Z,46.88
2018-11-02T07:58:31.508Z,46.88
2018-11-02T07:59:31.497Z,46.98
2018-11-02T08:00:31.557Z,46.98
2018-11-02T08:01:31.481Z,47.28
2018-11-02T08:02:31.525Z,47.19
2018-11-02T08:03:32.035Z,46.78
2018-11-02T08:04:31.946Z,46.98
2018-11-02T08:09:19.480Z,47.28
2018-11-02T08:11:35.844Z,47.08
2018-11-02T08:14:07.967Z,47.49
2018-11-02T08:15:08.202Z,47.08
2018-11-02T08:16:07.930Z,47.38
2018-11-02T08:38:24.805Z,47.61
2018-11-02T08:41:30.876Z,47.31
2018-11-02T08:43:41.938Z,47.41
2018-11-02T08:44:41.624Z,47.81
2018-11-02T08:45:41.654Z,47.81
2018-11-02T08:46:41.471Z,47.31
2018-11-02T08:47:41.768Z,47.20
2018-11-02T08:48:44.702Z,47.41
2018-11-02T08:49:44.042Z,47.33
2018-11-02T08:50:42.363Z,47.81
2018-11-02T08:51:41.454Z,47.31
2018-11-02T08:55:15.173Z,47.81
2018-11-02T08:56:15.100Z,47.41
2018-11-02T08:57:15.114Z,47.41
2018-11-02T08:58:15.211Z,47.81
2018-11-02T08:59:15.062Z,47.91
2018-11-02T09:00:14.963Z,47.63
2018-11-02T09:01:14.867Z,47.61
2018-11-02T09:02:14.834Z,47.53
2018-11-02T09:03:15.308Z,47.63
2018-11-02T09:04:14.914Z,47.81
2018-11-02T09:05:14.935Z,47.83
2018-11-02T09:06:14.792Z,47.53
2018-11-02T09:07:14.801Z,47.73
2018-11-02T09:08:14.778Z,47.73
2018-11-02T09:09:14.828Z,47.83
2018-11-02T09:10:14.846Z,47.73
2018-11-02T09:11:14.732Z,47.33
2018-11-02T09:12:14.857Z,47.33
2018-11-02T09:13:16.676Z,47.83
2018-11-02T09:14:14.726Z,47.53
2018-11-02T09:15:14.860Z,47.43
2018-11-02T09:16:14.783Z,47.23
2018-11-02T09:17:14.719Z,47.53
2018-11-02T09:18:14.666Z,47.43
2018-11-02T09:19:14.742Z,47.73
2018-11-02T09:23:00.629Z,48.53
2018-11-02T09:24:00.100Z,47.33
2018-11-02T09:25:00.639Z,47.03
2018-11-02T09:26:00.235Z,47.11
2018-11-02T09:26:59.941Z,47.23
2018-11-02T09:27:59.812Z,46.93
2018-11-02T09:29:00.351Z,47.13
2018-11-02T09:29:59.635Z,47.03
2018-11-02T09:30:59.832Z,47.11
2018-11-02T09:31:59.630Z,47.33
2018-11-02T09:32:59.536Z,47.23
2018-11-02T09:33:59.845Z,47.73
2018-11-02T09:34:59.539Z,47.43
2018-11-02T09:36:07.711Z,47.03
2018-11-02T09:38:16.554Z,47.63
2018-11-02T09:39:16.574Z,47.53
2018-11-02T09:40:16.565Z,47.53
2018-11-02T09:41:16.461Z,47.63
2018-11-02T09:42:17.569Z,47.25
2018-11-02T09:43:16.364Z,47.75
2018-11-02T09:44:16.389Z,47.25
2018-11-02T09:46:22.582Z,48.16
2018-11-02T10:12:24.720Z,48.05
2018-11-02T10:13:23.363Z,48.86
2018-11-02T10:14:23.698Z,49.05
2018-11-02T10:15:23.305Z,48.96
2018-11-02T10:16:23.181Z,49.36
2018-11-02T10:17:23.168Z,49.36
2018-11-02T10:18:23.161Z,48.66
2018-11-02T11:45:14.497Z,49.86
2018-11-02T12:44:39.151Z,49.51
2018-11-02T12:55:41.699Z,49.61
2018-11-02T13:43:10.115Z,49.61
2018-11-02T13:46:42.953Z,49.61
2018-11-02T14:07:30.046Z,49.01
2018-11-02T14:18:49.442Z,49.54
2018-11-02T14:19:49.226Z,49.74
2018-11-02T14:20:49.135Z,49.84
2018-11-02T15:02:21.374Z,50.34
2018-11-02T15:03:21.158Z,50.84
2018-11-02T15:04:21.192Z,50.74
2018-11-02T15:08:15.858Z,50.81
2018-11-02T15:09:15.551Z,49.71
2018-11-02T15:10:15.558Z,49.71
2018-11-02T15:11:15.490Z,49.93
2018-11-02T15:12:15.493Z,49.51
2018-11-02T15:13:15.576Z,50.01
2018-11-02T15:14:15.482Z,49.74
2018-11-02T15:15:15.504Z,50.24
2018-11-02T15:16:15.597Z,50.04
2018-11-02T15:17:15.399Z,49.54
2018-11-02T15:18:15.509Z,49.63
2018-11-02T15:19:15.418Z,50.44
2018-11-02T15:20:15.417Z,50.34
2018-11-02T15:21:15.439Z,50.54
2018-11-02T15:22:15.531Z,50.34
2018-11-02T15:23:15.543Z,50.54
2018-11-02T15:24:15.341Z,51.04
2018-11-02T15:25:15.348Z,50.76
2018-11-02T15:26:15.366Z,50.84
2018-11-02T15:27:15.361Z,50.63
2018-11-02T15:28:15.569Z,50.36
2018-11-02T15:29:15.284Z,50.46
2018-11-02T15:30:15.284Z,50.46
2018-11-02T15:31:15.284Z,50.44
2018-11-02T15:32:15.290Z,50.46
2018-11-02T15:33:15.395Z,51.46
2018-11-02T15:34:15.405Z,50.76
2018-11-02T15:35:15.414Z,52.17
2018-11-02T15:36:15.213Z,51.17
2018-11-02T15:37:15.230Z,51.26
2018-11-02T15:38:15.328Z,51.06
2018-11-02T15:39:15.231Z,51.26
2018-11-02T15:40:15.253Z,51.46
2018-11-02T15:41:15.142Z,52.17
2018-11-02T15:42:15.154Z,51.87
2018-11-02T15:43:15.257Z,52.17
2018-11-02T15:44:15.224Z,52.17
2018-11-02T15:45:16.128Z,52.07
2018-11-02T15:47:42.414Z,51.46
2018-11-02T15:48:42.631Z,51.94
2018-11-02T15:49:42.131Z,52.26
2018-11-02T15:50:42.136Z,51.84
2018-11-02T15:51:42.143Z,51.54
2018-11-02T15:52:42.152Z,52.64
2018-11-02T15:53:42.293Z,52.97
2018-11-02T15:54:42.168Z,52.57
2018-11-02T15:55:42.060Z,52.24
2018-11-02T15:56:42.072Z,52.57
2018-11-02T15:57:42.250Z,52.47
2018-11-02T15:58:42.699Z,53.14
2018-11-02T15:59:42.091Z,52.77
2018-11-02T16:00:42.384Z,52.57
2018-11-02T16:01:42.050Z,52.57
2018-11-02T16:02:42.030Z,52.87
2018-11-02T16:03:42.216Z,52.47
2018-11-02T16:04:42.215Z,52.47
2018-11-02T16:05:42.796Z,53.07
2018-11-02T16:06:42.146Z,53.05
2018-11-02T16:07:42.152Z,53.57
2018-11-02T16:08:42.049Z,53.17
2018-11-02T16:09:41.952Z,52.97
2018-11-02T16:10:42.388Z,52.97
2018-11-02T16:11:42.418Z,53.27
2018-11-02T16:12:41.971Z,53.34
2018-11-02T16:13:41.969Z,52.97
2018-11-02T16:14:41.887Z,52.94
2018-11-02T16:17:36.746Z,52.75
2018-11-02T16:18:45.189Z,52.57
2018-11-02T16:19:36.182Z,51.54
2018-11-02T16:20:36.209Z,52.14
2018-11-02T16:21:36.130Z,51.34
2018-11-02T16:22:36.125Z,51.06
2018-11-02T16:23:36.197Z,51.04
2018-11-02T16:24:36.105Z,50.54
2018-11-02T16:25:36.116Z,51.04
2018-11-02T16:26:36.020Z,50.54
2018-11-02T16:29:24.939Z,52.14
2018-11-02T16:30:24.696Z,51.84
2018-11-02T16:31:24.574Z,51.84
2018-11-02T16:32:24.601Z,52.14
2018-11-02T16:33:24.685Z,52.04
2018-11-02T16:34:24.587Z,51.54
2018-11-02T16:35:24.612Z,52.17
2018-11-02T16:36:24.604Z,52.17
2018-11-02T16:37:24.503Z,51.26
2018-11-02T16:38:24.612Z,51.87
2018-11-02T16:39:24.551Z,51.46
2018-11-02T16:41:45.897Z,51.17
2018-11-02T16:42:45.535Z,51.17
2018-11-02T16:43:45.853Z,51.26
2018-11-02T16:44:45.644Z,51.26
2018-11-02T16:45:46.008Z,51.56
2018-11-02T16:46:45.452Z,51.17
2018-11-02T16:47:45.516Z,51.26
2018-11-02T16:48:45.566Z,51.26
2018-11-02T16:49:45.519Z,51.26
2018-11-02T16:50:45.659Z,50.56
2018-11-02T16:51:45.384Z,51.46
2018-11-02T16:52:45.402Z,50.66
2018-11-02T16:53:45.496Z,50.76
2018-11-02T16:54:45.478Z,51.26
2018-11-02T16:55:45.409Z,50.86
2018-11-02T16:56:45.481Z,50.96
2018-11-02T16:57:45.598Z,50.66
2018-11-02T16:58:45.427Z,50.86
2018-11-02T16:59:45.333Z,50.86
2018-11-02T17:00:46.195Z,51.06
2018-11-02T17:01:45.362Z,51.26
2018-11-02T17:02:45.266Z,51.06
2018-11-02T17:03:46.468Z,51.06
2018-11-02T17:04:45.292Z,50.96
2018-11-02T17:05:45.311Z,50.99
2018-11-02T17:06:45.271Z,50.76
2018-11-02T17:07:45.276Z,51.06
2018-11-02T17:08:45.410Z,50.86
2018-11-02T17:09:46.313Z,51.06
2018-11-02T17:10:45.204Z,50.76
2018-11-02T17:11:45.396Z,50.96
2018-11-02T17:12:45.226Z,50.46
2018-11-02T17:13:45.212Z,51.06
2018-11-02T17:14:45.218Z,50.86
2018-11-02T17:15:45.135Z,50.26
2018-11-02T17:16:45.128Z,50.66
2018-11-02T17:17:45.245Z,50.36
2018-11-02T17:18:45.331Z,50.26
2018-11-02T17:19:45.279Z,49.76
2018-11-02T17:20:45.056Z,50.26
2018-11-02T17:21:45.109Z,49.66
2018-11-02T17:22:45.083Z,49.66
2018-11-02T17:23:45.199Z,49.76
2018-11-02T17:24:45.279Z,49.16
2018-11-02T17:25:45.084Z,49.56
2018-11-02T17:26:44.991Z,49.66
2018-11-02T17:27:45.068Z,49.26
2018-11-02T17:28:45.007Z,49.66
2018-11-02T17:29:45.111Z,49.66
2018-11-02T17:30:45.113Z,49.46
2018-11-02T17:31:45.173Z,49.36
2018-11-02T17:32:45.117Z,49.56
2018-11-02T17:33:44.984Z,49.66
2018-11-02T17:34:45.047Z,49.76
2018-11-02T17:35:44.957Z,49.56
2018-11-02T17:36:45.030Z,49.56
2018-11-02T17:37:44.960Z,49.56
2018-11-02T17:38:44.868Z,49.46
2018-11-02T17:39:44.979Z,49.36
2018-11-02T17:40:44.872Z,49.16
2018-11-02T17:41:45.288Z,49.56
2018-11-02T17:42:44.925Z,49.16
2018-11-02T17:43:44.961Z,49.36
2018-11-02T17:44:44.932Z,49.36
2018-11-02T17:45:44.809Z,49.36
2018-11-02T17:46:44.813Z,49.05
2018-11-02T17:47:45.046Z,49.56
2018-11-02T17:48:44.828Z,49.46
2018-11-02T17:49:44.957Z,49.36
2018-11-02T17:50:44.746Z,49.36
2018-11-02T17:51:44.756Z,49.56
2018-11-02T17:52:44.779Z,49.26
2018-11-02T17:53:44.934Z,49.56
2018-11-02T17:54:44.859Z,49.05
2018-11-02T17:55:44.768Z,49.16
2018-11-02T17:56:44.666Z,49.26
2018-11-02T17:57:44.809Z,49.36
2018-11-02T17:58:44.707Z,49.36
2018-11-02T17:59:44.869Z,48.96
2018-11-02T18:00:44.700Z,49.56
2018-11-02T18:01:44.737Z,49.26
2018-11-02T18:02:44.746Z,48.96
2018-11-02T18:03:44.645Z,49.05
2018-11-02T18:04:45.006Z,48.96
2018-11-02T18:05:44.684Z,49.05
2018-11-02T18:06:44.709Z,49.48
2018-11-02T18:07:44.660Z,48.96
2018-11-02T18:08:44.595Z,48.96
2018-11-02T18:09:44.672Z,48.75
2018-11-02T18:10:44.930Z,48.16
2018-11-02T18:13:39.930Z,49.05
2018-11-02T18:14:38.941Z,48.75
2018-11-02T18:19:29.191Z,48.55
2018-11-02T18:20:29.194Z,48.86
2018-11-02T18:28:25.799Z,48.46
2018-11-02T18:29:25.599Z,48.75
2018-11-02T18:30:25.532Z,48.75
2018-11-02T18:31:25.456Z,49.05
2018-11-02T18:32:25.346Z,48.46
2018-11-02T18:33:25.370Z,48.16
2018-11-02T18:34:25.366Z,48.75
2018-11-02T18:35:25.567Z,48.86
2018-11-02T18:36:25.377Z,49.16
2018-11-02T18:37:25.404Z,48.18
2018-11-02T18:38:25.291Z,48.88
2018-11-02T18:39:25.294Z,49.18
2018-11-02T18:40:25.401Z,48.58
2018-11-02T18:41:25.312Z,48.88
2018-11-02T18:42:25.371Z,48.66
2018-11-02T18:43:25.470Z,48.66
2018-11-02T18:44:25.216Z,48.58
2018-11-02T18:45:25.335Z,48.88
2018-11-02T18:46:25.225Z,48.18
2018-11-02T18:47:25.256Z,48.68
2018-11-02T18:48:25.426Z,48.18
2018-11-02T18:49:25.242Z,49.48
2018-11-02T18:50:25.258Z,49.68
2018-11-02T18:51:25.153Z,49.68
2018-11-02T18:52:25.157Z,50.68
2018-11-02T18:53:25.163Z,50.38
2018-11-02T18:54:25.170Z,50.41
2018-11-02T18:55:25.274Z,49.71
2018-11-02T18:56:25.291Z,49.68
2018-11-02T18:57:25.088Z,49.68
2018-11-02T18:58:25.088Z,49.48
2018-11-02T18:59:25.100Z,49.08
2018-11-02T19:00:25.205Z,49.48
2018-11-02T19:01:25.106Z,48.78
2018-11-02T19:02:25.018Z,48.88
2018-11-02T19:03:25.023Z,48.98
2018-11-02T19:04:25.094Z,49.08
2018-11-02T19:05:25.187Z,49.68
2018-11-02T19:06:25.048Z,49.08
2018-11-02T19:07:25.049Z,48.88
2018-11-02T19:08:24.951Z,49.08
2018-11-02T19:09:24.952Z,49.68
2018-11-02T19:10:25.060Z,49.71
2018-11-02T19:11:24.964Z,49.30
2018-11-02T19:12:24.977Z,49.60
2018-11-02T19:13:25.081Z,49.71
2018-11-02T19:14:24.890Z,49.80
2018-11-02T19:15:24.993Z,49.21
2018-11-02T19:16:24.906Z,49.30
2018-11-02T19:17:24.906Z,49.30
2018-11-02T19:18:24.919Z,49.13
2018-11-02T19:19:24.919Z,49.63
2018-11-02T19:20:25.014Z,49.93
2018-11-02T19:21:24.903Z,49.83
2018-11-02T19:22:24.930Z,49.83
2018-11-02T19:23:24.841Z,49.83
2018-11-02T19:24:24.851Z,50.33
2018-11-02T19:25:24.851Z,49.73
2018-11-02T19:26:24.753Z,49.93
2018-11-02T19:27:24.774Z,50.43
2018-11-02T19:28:24.989Z,50.53
2018-11-02T19:29:25.607Z,50.33
2018-11-02T19:30:24.985Z,50.21
2018-11-02T19:31:24.701Z,50.84
2018-11-02T19:32:24.804Z,51.04
2018-11-02T19:33:24.704Z,50.43
2018-11-02T19:34:24.852Z,50.63
2018-11-02T19:35:24.929Z,51.04
2018-11-02T19:36:25.497Z,50.63
2018-11-02T19:37:24.740Z,50.63
2018-11-02T19:38:24.740Z,51.04